sensor_id;sensor_type;location;lat;lon;timestamp;P1;durP1;ratioP1;P2;durP2;ratioP2
50853;SDS011;44154;45.506;-122.806;2023-04-07T00:02:06;5.25;;;0.60;;
50853;SDS011;44154;45.506;-122.806;2023-04-07T00:04:32;1.33;;;0.28;;
50853;SDS011;44154;45.506;-122.806;2023-04-07T00:06:58;2.55;;;0.45;;
50853;SDS011;44154;45.506;-122.806;2023-04-07T00:09:24;1.90;;;0.63;;
50853;SDS011;44154;45.506;-122.806;2023-04-07T00:11:50;2.72;;;0.60;;
50853;SDS011;44154;45.506;-122.806;2023-04-07T00:14:17;2.75;;;0.73;;
50853;SDS011;44154;45.506;-122.806;2023-04-07T00:16:43;3.00;;;0.32;;
50853;SDS011;44154;45.506;-122.806;2023-04-07T00:19:09;3.72;;;0.63;;
50853;SDS011;44154;45.506;-122.806;2023-04-07T00:21:35;2.53;;;0.40;;
50853;SDS011;44154;45.506;-122.806;2023-04-07T00:24:02;2.10;;;0.57;;
50853;SDS011;44154;45.506;-122.806;2023-04-07T00:26:28;2.63;;;0.40;;
50853;SDS011;44154;45.506;-122.806;2023-04-07T00:28:57;3.00;;;0.30;;
50853;SDS011;44154;45.506;-122.806;2023-04-07T00:31:24;2.17;;;0.28;;
50853;SDS011;44154;45.506;-122.806;2023-04-07T00:33:50;1.83;;;0.30;;
50853;SDS011;44154;45.506;-122.806;2023-04-07T00:36:16;1.77;;;0.40;;
50853;SDS011;44154;45.506;-122.806;2023-04-07T00:38:42;2.42;;;0.40;;
50853;SDS011;44154;45.506;-122.806;2023-04-07T00:41:08;3.50;;;0.30;;
50853;SDS011;44154;45.506;-122.806;2023-04-07T00:43:34;2.70;;;0.55;;
50853;SDS011;44154;45.506;-122.806;2023-04-07T00:46:00;5.57;;;0.73;;
50853;SDS011;44154;45.506;-122.806;2023-04-07T00:48:27;3.72;;;0.47;;
50853;SDS011;44154;45.506;-122.806;2023-04-07T00:50:53;6.78;;;0.70;;
50853;SDS011;44154;45.506;-122.806;2023-04-07T00:53:19;2.05;;;0.60;;
50853;SDS011;44154;45.506;-122.806;2023-04-07T00:55:46;2.65;;;0.50;;
50853;SDS011;44154;45.506;-122.806;2023-04-07T00:58:12;4.15;;;0.55;;
50853;SDS011;44154;45.506;-122.806;2023-04-07T01:00:45;5.55;;;0.70;;
50853;SDS011;44154;45.506;-122.806;2023-04-07T01:03:19;6.93;;;0.77;;
50853;SDS011;44154;45.506;-122.806;2023-04-07T01:05:54;4.85;;;0.90;;
50853;SDS011;44154;45.506;-122.806;2023-04-07T01:08:41;3.90;;;0.50;;
50853;SDS011;44154;45.506;-122.806;2023-04-07T01:14:39;5.00;;;0.82;;
50853;SDS011;44154;45.506;-122.806;2023-04-07T01:17:10;10.90;;;1.35;;
50853;SDS011;44154;45.506;-122.806;2023-04-07T01:22:53;6.20;;;1.08;;
50853;SDS011;44154;45.506;-122.806;2023-04-07T01:27:59;3.30;;;0.98;;
50853;SDS011;44154;45.506;-122.806;2023-04-07T01:30:40;8.60;;;1.15;;
50853;SDS011;44154;45.506;-122.806;2023-04-07T01:33:09;6.45;;;1.00;;
50853;SDS011;44154;45.506;-122.806;2023-04-07T01:35:37;7.15;;;1.23;;
50853;SDS011;44154;45.506;-122.806;2023-04-07T01:38:04;7.75;;;1.23;;
50853;SDS011;44154;45.506;-122.806;2023-04-07T01:40:31;7.80;;;1.52;;
50853;SDS011;44154;45.506;-122.806;2023-04-07T01:42:59;5.30;;;0.95;;
50853;SDS011;44154;45.506;-122.806;2023-04-07T01:45:27;5.95;;;0.90;;
50853;SDS011;44154;45.506;-122.806;2023-04-07T01:47:55;2.85;;;0.77;;
50853;SDS011;44154;45.506;-122.806;2023-04-07T01:50:22;5.65;;;1.25;;
50853;SDS011;44154;45.506;-122.806;2023-04-07T01:52:49;5.00;;;1.00;;
50853;SDS011;44154;45.506;-122.806;2023-04-07T01:55:16;4.15;;;1.20;;
50853;SDS011;44154;45.506;-122.806;2023-04-07T01:57:42;5.35;;;0.82;;
50853;SDS011;44154;45.506;-122.806;2023-04-07T02:00:08;3.92;;;0.90;;
50853;SDS011;44154;45.506;-122.806;2023-04-07T02:02:35;6.95;;;1.20;;
50853;SDS011;44154;45.506;-122.806;2023-04-07T02:05:05;6.00;;;1.30;;
50853;SDS011;44154;45.506;-122.806;2023-04-07T02:07:42;8.68;;;1.73;;
50853;SDS011;44154;45.506;-122.806;2023-04-07T02:10:23;9.48;;;1.70;;
50853;SDS011;44154;45.506;-122.806;2023-04-07T02:12:51;7.15;;;1.33;;
50853;SDS011;44154;45.506;-122.806;2023-04-07T02:15:18;3.78;;;1.20;;
50853;SDS011;44154;45.506;-122.806;2023-04-07T02:17:46;6.18;;;1.63;;
50853;SDS011;44154;45.506;-122.806;2023-04-07T02:20:17;5.60;;;0.90;;
50853;SDS011;44154;45.506;-122.806;2023-04-07T02:22:44;4.00;;;1.05;;
50853;SDS011;44154;45.506;-122.806;2023-04-07T02:25:20;3.53;;;1.08;;
50853;SDS011;44154;45.506;-122.806;2023-04-07T02:27:47;3.17;;;1.00;;
50853;SDS011;44154;45.506;-122.806;2023-04-07T02:30:13;3.55;;;1.00;;
50853;SDS011;44154;45.506;-122.806;2023-04-07T02:32:39;6.22;;;1.50;;
50853;SDS011;44154;45.506;-122.806;2023-04-07T02:35:05;3.67;;;0.90;;
50853;SDS011;44154;45.506;-122.806;2023-04-07T02:37:32;6.35;;;0.80;;
50853;SDS011;44154;45.506;-122.806;2023-04-07T02:39:58;5.65;;;1.05;;
50853;SDS011;44154;45.506;-122.806;2023-04-07T02:42:24;9.07;;;1.10;;
50853;SDS011;44154;45.506;-122.806;2023-04-07T02:44:50;3.80;;;1.15;;
50853;SDS011;44154;45.506;-122.806;2023-04-07T02:47:16;4.82;;;0.70;;
50853;SDS011;44154;45.506;-122.806;2023-04-07T02:49:43;6.70;;;1.10;;
50853;SDS011;44154;45.506;-122.806;2023-04-07T02:52:09;3.78;;;0.80;;
50853;SDS011;44154;45.506;-122.806;2023-04-07T02:54:35;4.70;;;1.13;;
50853;SDS011;44154;45.506;-122.806;2023-04-07T02:57:02;4.25;;;0.82;;
50853;SDS011;44154;45.506;-122.806;2023-04-07T02:59:28;3.25;;;0.88;;
50853;SDS011;44154;45.506;-122.806;2023-04-07T03:01:54;5.80;;;0.90;;
50853;SDS011;44154;45.506;-122.806;2023-04-07T03:04:21;7.35;;;0.80;;
50853;SDS011;44154;45.506;-122.806;2023-04-07T03:06:47;7.25;;;0.90;;
50853;SDS011;44154;45.506;-122.806;2023-04-07T03:09:13;5.10;;;0.80;;
50853;SDS011;44154;45.506;-122.806;2023-04-07T03:11:39;4.45;;;1.00;;
50853;SDS011;44154;45.506;-122.806;2023-04-07T03:14:08;2.95;;;0.73;;
50853;SDS011;44154;45.506;-122.806;2023-04-07T03:16:34;4.55;;;0.90;;
50853;SDS011;44154;45.506;-122.806;2023-04-07T03:19:00;1.83;;;0.60;;
50853;SDS011;44154;45.506;-122.806;2023-04-07T03:21:27;4.15;;;0.85;;
50853;SDS011;44154;45.506;-122.806;2023-04-07T03:23:53;2.88;;;0.75;;
50853;SDS011;44154;45.506;-122.806;2023-04-07T03:26:19;2.92;;;0.77;;
50853;SDS011;44154;45.506;-122.806;2023-04-07T03:28:46;3.75;;;1.00;;
50853;SDS011;44154;45.506;-122.806;2023-04-07T03:31:12;3.75;;;0.90;;
50853;SDS011;44154;45.506;-122.806;2023-04-07T03:33:38;3.25;;;1.00;;
50853;SDS011;44154;45.506;-122.806;2023-04-07T03:36:04;5.00;;;1.23;;
50853;SDS011;44154;45.506;-122.806;2023-04-07T03:38:30;4.63;;;1.00;;
50853;SDS011;44154;45.506;-122.806;2023-04-07T03:40:57;2.67;;;0.60;;
50853;SDS011;44154;45.506;-122.806;2023-04-07T03:43:23;1.27;;;0.40;;
50853;SDS011;44154;45.506;-122.806;2023-04-07T03:45:51;2.08;;;0.50;;
50853;SDS011;44154;45.506;-122.806;2023-04-07T03:48:18;0.88;;;0.40;;
50853;SDS011;44154;45.506;-122.806;2023-04-07T03:50:44;2.92;;;0.52;;
50853;SDS011;44154;45.506;-122.806;2023-04-07T03:53:10;3.05;;;0.43;;
50853;SDS011;44154;45.506;-122.806;2023-04-07T03:55:41;3.35;;;0.75;;
50853;SDS011;44154;45.506;-122.806;2023-04-07T03:58:08;1.83;;;0.43;;
50853;SDS011;44154;45.506;-122.806;2023-04-07T04:00:34;2.85;;;0.60;;
50853;SDS011;44154;45.506;-122.806;2023-04-07T04:03:00;2.63;;;0.57;;
50853;SDS011;44154;45.506;-122.806;2023-04-07T04:05:27;1.73;;;0.52;;
50853;SDS011;44154;45.506;-122.806;2023-04-07T04:07:53;2.17;;;0.57;;
50853;SDS011;44154;45.506;-122.806;2023-04-07T04:10:19;2.25;;;0.52;;
50853;SDS011;44154;45.506;-122.806;2023-04-07T04:12:46;1.75;;;0.45;;
50853;SDS011;44154;45.506;-122.806;2023-04-07T04:15:13;1.88;;;0.50;;
50853;SDS011;44154;45.506;-122.806;2023-04-07T04:17:40;2.38;;;0.70;;
50853;SDS011;44154;45.506;-122.806;2023-04-07T04:20:06;3.65;;;0.80;;
50853;SDS011;44154;45.506;-122.806;2023-04-07T04:22:33;3.30;;;0.70;;
50853;SDS011;44154;45.506;-122.806;2023-04-07T04:25:00;2.50;;;0.70;;
50853;SDS011;44154;45.506;-122.806;2023-04-07T04:27:26;2.00;;;0.60;;
50853;SDS011;44154;45.506;-122.806;2023-04-07T04:29:53;2.10;;;0.65;;
50853;SDS011;44154;45.506;-122.806;2023-04-07T04:32:19;1.50;;;0.52;;
50853;SDS011;44154;45.506;-122.806;2023-04-07T04:34:45;2.83;;;0.90;;
50853;SDS011;44154;45.506;-122.806;2023-04-07T04:37:11;2.47;;;0.70;;
50853;SDS011;44154;45.506;-122.806;2023-04-07T04:39:37;1.95;;;0.60;;
50853;SDS011;44154;45.506;-122.806;2023-04-07T04:42:04;2.70;;;1.10;;
50853;SDS011;44154;45.506;-122.806;2023-04-07T04:44:30;1.70;;;0.70;;
50853;SDS011;44154;45.506;-122.806;2023-04-07T04:46:56;1.77;;;0.98;;
50853;SDS011;44154;45.506;-122.806;2023-04-07T04:49:22;7.65;;;4.85;;
50853;SDS011;44154;45.506;-122.806;2023-04-07T04:51:49;4.00;;;2.97;;
50853;SDS011;44154;45.506;-122.806;2023-04-07T04:54:15;3.70;;;2.58;;
50853;SDS011;44154;45.506;-122.806;2023-04-07T04:56:43;4.00;;;2.40;;
50853;SDS011;44154;45.506;-122.806;2023-04-07T04:59:09;3.97;;;2.60;;
50853;SDS011;44154;45.506;-122.806;2023-04-07T05:01:35;3.40;;;2.50;;
50853;SDS011;44154;45.506;-122.806;2023-04-07T05:04:01;4.72;;;2.42;;
50853;SDS011;44154;45.506;-122.806;2023-04-07T05:06:27;3.67;;;2.28;;
50853;SDS011;44154;45.506;-122.806;2023-04-07T05:08:53;3.17;;;2.50;;
50853;SDS011;44154;45.506;-122.806;2023-04-07T05:11:20;5.10;;;3.00;;
50853;SDS011;44154;45.506;-122.806;2023-04-07T05:13:46;3.22;;;2.42;;
50853;SDS011;44154;45.506;-122.806;2023-04-07T05:16:12;4.18;;;2.38;;
50853;SDS011;44154;45.506;-122.806;2023-04-07T05:18:38;3.97;;;2.63;;
50853;SDS011;44154;45.506;-122.806;2023-04-07T05:21:04;3.15;;;2.53;;
50853;SDS011;44154;45.506;-122.806;2023-04-07T05:23:30;3.70;;;2.47;;
50853;SDS011;44154;45.506;-122.806;2023-04-07T05:25:56;4.70;;;3.08;;
50853;SDS011;44154;45.506;-122.806;2023-04-07T05:28:22;3.75;;;2.85;;
50853;SDS011;44154;45.506;-122.806;2023-04-07T05:30:49;3.97;;;2.75;;
50853;SDS011;44154;45.506;-122.806;2023-04-07T05:33:15;4.70;;;2.90;;
50853;SDS011;44154;45.506;-122.806;2023-04-07T05:35:44;4.07;;;3.05;;
50853;SDS011;44154;45.506;-122.806;2023-04-07T05:38:11;3.80;;;2.97;;
50853;SDS011;44154;45.506;-122.806;2023-04-07T05:40:38;4.13;;;2.88;;
50853;SDS011;44154;45.506;-122.806;2023-04-07T05:43:04;4.40;;;2.95;;
50853;SDS011;44154;45.506;-122.806;2023-04-07T05:45:30;6.15;;;3.30;;
50853;SDS011;44154;45.506;-122.806;2023-04-07T05:47:56;5.72;;;3.42;;
50853;SDS011;44154;45.506;-122.806;2023-04-07T05:50:22;4.65;;;3.00;;
50853;SDS011;44154;45.506;-122.806;2023-04-07T05:52:48;12.50;;;11.40;;
50853;SDS011;44154;45.506;-122.806;2023-04-07T05:55:15;10.00;;;9.02;;
50853;SDS011;44154;45.506;-122.806;2023-04-07T05:57:41;7.28;;;6.35;;
50853;SDS011;44154;45.506;-122.806;2023-04-07T06:00:07;7.05;;;6.00;;
50853;SDS011;44154;45.506;-122.806;2023-04-07T06:02:33;6.95;;;5.78;;
50853;SDS011;44154;45.506;-122.806;2023-04-07T06:05:00;6.82;;;5.65;;
50853;SDS011;44154;45.506;-122.806;2023-04-07T06:07:26;7.68;;;5.70;;
50853;SDS011;44154;45.506;-122.806;2023-04-07T06:09:52;6.35;;;5.55;;
50853;SDS011;44154;45.506;-122.806;2023-04-07T06:12:18;8.68;;;5.70;;
50853;SDS011;44154;45.506;-122.806;2023-04-07T06:14:45;7.75;;;5.47;;
50853;SDS011;44154;45.506;-122.806;2023-04-07T06:17:17;7.57;;;5.40;;
50853;SDS011;44154;45.506;-122.806;2023-04-07T06:19:43;8.13;;;5.25;;
50853;SDS011;44154;45.506;-122.806;2023-04-07T06:22:09;6.15;;;5.28;;
50853;SDS011;44154;45.506;-122.806;2023-04-07T06:24:35;9.00;;;6.25;;
50853;SDS011;44154;45.506;-122.806;2023-04-07T06:27:01;8.05;;;5.65;;
50853;SDS011;44154;45.506;-122.806;2023-04-07T06:29:37;8.93;;;5.93;;
50853;SDS011;44154;45.506;-122.806;2023-04-07T06:32:03;8.98;;;5.72;;
50853;SDS011;44154;45.506;-122.806;2023-04-07T06:34:30;7.20;;;5.15;;
50853;SDS011;44154;45.506;-122.806;2023-04-07T06:36:56;7.97;;;5.60;;
50853;SDS011;44154;45.506;-122.806;2023-04-07T06:39:24;7.95;;;5.20;;
50853;SDS011;44154;45.506;-122.806;2023-04-07T06:41:52;8.40;;;5.82;;
50853;SDS011;44154;45.506;-122.806;2023-04-07T06:44:18;5.80;;;4.72;;
50853;SDS011;44154;45.506;-122.806;2023-04-07T06:46:44;5.70;;;5.10;;
50853;SDS011;44154;45.506;-122.806;2023-04-07T06:49:13;8.95;;;5.53;;
50853;SDS011;44154;45.506;-122.806;2023-04-07T06:51:40;7.70;;;6.18;;
50853;SDS011;44154;45.506;-122.806;2023-04-07T06:54:06;8.45;;;5.28;;
50853;SDS011;44154;45.506;-122.806;2023-04-07T06:56:37;10.52;;;6.20;;
50853;SDS011;44154;45.506;-122.806;2023-04-07T06:59:03;8.20;;;6.15;;
50853;SDS011;44154;45.506;-122.806;2023-04-07T07:01:29;8.55;;;6.00;;
50853;SDS011;44154;45.506;-122.806;2023-04-07T07:03:55;7.60;;;5.32;;
50853;SDS011;44154;45.506;-122.806;2023-04-07T07:06:22;6.70;;;5.40;;
50853;SDS011;44154;45.506;-122.806;2023-04-07T07:08:48;8.05;;;5.70;;
50853;SDS011;44154;45.506;-122.806;2023-04-07T07:11:14;8.23;;;5.75;;
50853;SDS011;44154;45.506;-122.806;2023-04-07T07:13:40;9.10;;;6.63;;
50853;SDS011;44154;45.506;-122.806;2023-04-07T07:16:15;7.35;;;6.50;;
50853;SDS011;44154;45.506;-122.806;2023-04-07T07:18:42;9.20;;;7.90;;
50853;SDS011;44154;45.506;-122.806;2023-04-07T07:21:08;8.75;;;7.45;;
50853;SDS011;44154;45.506;-122.806;2023-04-07T07:23:34;7.00;;;4.85;;
50853;SDS011;44154;45.506;-122.806;2023-04-07T07:26:00;5.95;;;4.20;;
50853;SDS011;44154;45.506;-122.806;2023-04-07T07:28:26;5.40;;;3.75;;
50853;SDS011;44154;45.506;-122.806;2023-04-07T07:30:53;4.72;;;3.10;;
50853;SDS011;44154;45.506;-122.806;2023-04-07T07:33:20;3.67;;;2.97;;
50853;SDS011;44154;45.506;-122.806;2023-04-07T07:35:47;5.32;;;3.22;;
50853;SDS011;44154;45.506;-122.806;2023-04-07T07:38:13;3.78;;;3.13;;
50853;SDS011;44154;45.506;-122.806;2023-04-07T07:40:39;3.75;;;3.05;;
50853;SDS011;44154;45.506;-122.806;2023-04-07T07:43:06;5.10;;;3.47;;
50853;SDS011;44154;45.506;-122.806;2023-04-07T07:45:32;4.68;;;3.63;;
50853;SDS011;44154;45.506;-122.806;2023-04-07T07:47:58;3.97;;;3.03;;
50853;SDS011;44154;45.506;-122.806;2023-04-07T07:50:24;4.70;;;2.97;;
50853;SDS011;44154;45.506;-122.806;2023-04-07T07:52:51;4.00;;;3.08;;
50853;SDS011;44154;45.506;-122.806;2023-04-07T07:55:17;26.70;;;24.38;;
50853;SDS011;44154;45.506;-122.806;2023-04-07T07:57:43;16.77;;;15.23;;
50853;SDS011;44154;45.506;-122.806;2023-04-07T08:00:09;11.45;;;10.35;;
50853;SDS011;44154;45.506;-122.806;2023-04-07T08:02:36;9.27;;;8.40;;
50853;SDS011;44154;45.506;-122.806;2023-04-07T08:05:03;7.82;;;7.00;;
50853;SDS011;44154;45.506;-122.806;2023-04-07T08:07:29;7.32;;;6.57;;
50853;SDS011;44154;45.506;-122.806;2023-04-07T08:09:56;6.80;;;6.10;;
50853;SDS011;44154;45.506;-122.806;2023-04-07T08:12:22;5.63;;;4.90;;
50853;SDS011;44154;45.506;-122.806;2023-04-07T08:14:48;5.85;;;5.25;;
50853;SDS011;44154;45.506;-122.806;2023-04-07T08:17:15;6.13;;;5.53;;
50853;SDS011;44154;45.506;-122.806;2023-04-07T08:19:41;9.13;;;7.18;;
50853;SDS011;44154;45.506;-122.806;2023-04-07T08:22:07;6.20;;;5.60;;
50853;SDS011;44154;45.506;-122.806;2023-04-07T08:24:33;6.60;;;5.90;;
50853;SDS011;44154;45.506;-122.806;2023-04-07T08:26:59;6.63;;;5.93;;
50853;SDS011;44154;45.506;-122.806;2023-04-07T08:29:26;8.70;;;6.82;;
50853;SDS011;44154;45.506;-122.806;2023-04-07T08:31:52;6.82;;;6.13;;
50853;SDS011;44154;45.506;-122.806;2023-04-07T08:34:18;7.88;;;6.78;;
50853;SDS011;44154;45.506;-122.806;2023-04-07T08:36:45;6.85;;;5.95;;
50853;SDS011;44154;45.506;-122.806;2023-04-07T08:39:11;7.15;;;6.45;;
50853;SDS011;44154;45.506;-122.806;2023-04-07T08:41:40;7.85;;;6.88;;
50853;SDS011;44154;45.506;-122.806;2023-04-07T08:44:09;13.93;;;12.63;;
50853;SDS011;44154;45.506;-122.806;2023-04-07T08:46:38;12.30;;;11.10;;
50853;SDS011;44154;45.506;-122.806;2023-04-07T08:49:09;12.40;;;11.25;;
50853;SDS011;44154;45.506;-122.806;2023-04-07T08:51:41;12.60;;;11.40;;
50853;SDS011;44154;45.506;-122.806;2023-04-07T08:54:12;10.85;;;9.88;;
50853;SDS011;44154;45.506;-122.806;2023-04-07T08:56:41;10.57;;;9.68;;
50853;SDS011;44154;45.506;-122.806;2023-04-07T08:59:08;10.55;;;9.48;;
50853;SDS011;44154;45.506;-122.806;2023-04-07T09:01:36;9.25;;;8.35;;
50853;SDS011;44154;45.506;-122.806;2023-04-07T09:04:03;9.75;;;8.75;;
50853;SDS011;44154;45.506;-122.806;2023-04-07T09:06:32;9.40;;;8.50;;
50853;SDS011;44154;45.506;-122.806;2023-04-07T09:08:59;9.00;;;8.13;;
50853;SDS011;44154;45.506;-122.806;2023-04-07T09:11:33;10.68;;;9.68;;
50853;SDS011;44154;45.506;-122.806;2023-04-07T09:14:00;10.95;;;9.85;;
50853;SDS011;44154;45.506;-122.806;2023-04-07T09:16:27;11.27;;;10.18;;
50853;SDS011;44154;45.506;-122.806;2023-04-07T09:18:55;10.55;;;9.45;;
50853;SDS011;44154;45.506;-122.806;2023-04-07T09:21:21;10.75;;;9.75;;
50853;SDS011;44154;45.506;-122.806;2023-04-07T09:23:48;10.77;;;9.70;;
50853;SDS011;44154;45.506;-122.806;2023-04-07T09:28:52;9.77;;;8.77;;
50853;SDS011;44154;45.506;-122.806;2023-04-07T09:31:48;10.20;;;9.20;;
50853;SDS011;44154;45.506;-122.806;2023-04-07T09:34:29;10.95;;;9.95;;
50853;SDS011;44154;45.506;-122.806;2023-04-07T09:36:59;11.18;;;10.07;;
50853;SDS011;44154;45.506;-122.806;2023-04-07T09:39:25;10.82;;;9.82;;
50853;SDS011;44154;45.506;-122.806;2023-04-07T09:41:52;12.07;;;10.90;;
50853;SDS011;44154;45.506;-122.806;2023-04-07T09:44:19;12.75;;;11.55;;
50853;SDS011;44154;45.506;-122.806;2023-04-07T09:49:18;14.02;;;12.82;;
50853;SDS011;44154;45.506;-122.806;2023-04-07T09:51:52;11.40;;;10.40;;
50853;SDS011;44154;45.506;-122.806;2023-04-07T09:57:03;11.18;;;10.15;;
50853;SDS011;44154;45.506;-122.806;2023-04-07T09:59:31;11.13;;;10.07;;
50853;SDS011;44154;45.506;-122.806;2023-04-07T10:01:58;11.38;;;10.18;;
50853;SDS011;44154;45.506;-122.806;2023-04-07T10:04:25;10.70;;;9.68;;
50853;SDS011;44154;45.506;-122.806;2023-04-07T10:06:53;11.40;;;10.30;;
50853;SDS011;44154;45.506;-122.806;2023-04-07T10:09:23;10.60;;;9.63;;
50853;SDS011;44154;45.506;-122.806;2023-04-07T10:11:53;11.85;;;10.65;;
50853;SDS011;44154;45.506;-122.806;2023-04-07T10:14:25;11.10;;;10.10;;
50853;SDS011;44154;45.506;-122.806;2023-04-07T10:16:53;10.45;;;9.48;;
50853;SDS011;44154;45.506;-122.806;2023-04-07T10:19:20;10.38;;;9.48;;
50853;SDS011;44154;45.506;-122.806;2023-04-07T10:21:47;10.57;;;9.65;;
50853;SDS011;44154;45.506;-122.806;2023-04-07T10:26:58;10.68;;;9.60;;
50853;SDS011;44154;45.506;-122.806;2023-04-07T10:29:31;10.05;;;9.05;;
50853;SDS011;44154;45.506;-122.806;2023-04-07T10:37:15;10.02;;;9.02;;
50853;SDS011;44154;45.506;-122.806;2023-04-07T10:39:45;10.30;;;8.90;;
50853;SDS011;44154;45.506;-122.806;2023-04-07T10:45:06;17.65;;;15.85;;
50853;SDS011;44154;45.506;-122.806;2023-04-07T10:47:34;17.73;;;16.13;;
50853;SDS011;44154;45.506;-122.806;2023-04-07T10:50:20;12.75;;;11.55;;
50853;SDS011;44154;45.506;-122.806;2023-04-07T10:53:09;11.30;;;10.20;;
50853;SDS011;44154;45.506;-122.806;2023-04-07T10:55:44;11.48;;;10.48;;
50853;SDS011;44154;45.506;-122.806;2023-04-07T11:01:30;12.82;;;11.63;;
50853;SDS011;44154;45.506;-122.806;2023-04-07T11:03:35;13.00;;;11.60;;
50853;SDS011;44154;45.506;-122.806;2023-04-07T11:06:03;11.57;;;10.48;;
50853;SDS011;44154;45.506;-122.806;2023-04-07T11:08:32;12.50;;;11.32;;
50853;SDS011;44154;45.506;-122.806;2023-04-07T11:11:03;12.35;;;11.15;;
50853;SDS011;44154;45.506;-122.806;2023-04-07T11:13:42;12.25;;;11.05;;
50853;SDS011;44154;45.506;-122.806;2023-04-07T11:16:13;12.27;;;11.18;;
50853;SDS011;44154;45.506;-122.806;2023-04-07T11:18:41;12.95;;;11.75;;
50853;SDS011;44154;45.506;-122.806;2023-04-07T11:21:08;11.93;;;10.82;;
50853;SDS011;44154;45.506;-122.806;2023-04-07T11:23:38;12.57;;;11.38;;
50853;SDS011;44154;45.506;-122.806;2023-04-07T11:26:10;23.23;;;21.13;;
50853;SDS011;44154;45.506;-122.806;2023-04-07T11:28:48;20.30;;;18.50;;
50853;SDS011;44154;45.506;-122.806;2023-04-07T11:33:52;14.00;;;12.70;;
50853;SDS011;44154;45.506;-122.806;2023-04-07T11:36:29;13.07;;;11.88;;
50853;SDS011;44154;45.506;-122.806;2023-04-07T11:38:57;13.25;;;12.05;;
50853;SDS011;44154;45.506;-122.806;2023-04-07T11:41:27;14.80;;;13.25;;
50853;SDS011;44154;45.506;-122.806;2023-04-07T11:46:35;12.18;;;11.07;;
50853;SDS011;44154;45.506;-122.806;2023-04-07T11:49:12;12.60;;;11.50;;
50853;SDS011;44154;45.506;-122.806;2023-04-07T11:51:41;15.27;;;11.52;;
50853;SDS011;44154;45.506;-122.806;2023-04-07T11:54:08;12.75;;;11.55;;
50853;SDS011;44154;45.506;-122.806;2023-04-07T11:56:42;15.75;;;11.18;;
50853;SDS011;44154;45.506;-122.806;2023-04-07T11:59:18;12.95;;;11.75;;
50853;SDS011;44154;45.506;-122.806;2023-04-07T12:01:49;11.82;;;10.68;;
50853;SDS011;44154;45.506;-122.806;2023-04-07T12:04:17;12.52;;;11.43;;
50853;SDS011;44154;45.506;-122.806;2023-04-07T12:06:44;20.77;;;18.85;;
50853;SDS011;44154;45.506;-122.806;2023-04-07T12:11:55;11.90;;;10.73;;
50853;SDS011;44154;45.506;-122.806;2023-04-07T12:14:22;12.48;;;11.38;;
50853;SDS011;44154;45.506;-122.806;2023-04-07T12:16:49;12.45;;;11.35;;
50853;SDS011;44154;45.506;-122.806;2023-04-07T12:19:15;12.43;;;11.25;;
50853;SDS011;44154;45.506;-122.806;2023-04-07T12:21:42;12.10;;;10.95;;
50853;SDS011;44154;45.506;-122.806;2023-04-07T12:24:08;11.38;;;10.35;;
50853;SDS011;44154;45.506;-122.806;2023-04-07T12:26:34;11.30;;;10.30;;
50853;SDS011;44154;45.506;-122.806;2023-04-07T12:29:00;11.90;;;10.80;;
50853;SDS011;44154;45.506;-122.806;2023-04-07T12:31:30;11.43;;;10.32;;
50853;SDS011;44154;45.506;-122.806;2023-04-07T12:33:57;11.57;;;10.57;;
50853;SDS011;44154;45.506;-122.806;2023-04-07T12:36:23;18.20;;;16.52;;
50853;SDS011;44154;45.506;-122.806;2023-04-07T12:38:52;15.52;;;14.13;;
50853;SDS011;44154;45.506;-122.806;2023-04-07T12:41:19;10.80;;;9.82;;
50853;SDS011;44154;45.506;-122.806;2023-04-07T12:43:45;9.20;;;8.40;;
50853;SDS011;44154;45.506;-122.806;2023-04-07T12:46:11;9.75;;;8.85;;
50853;SDS011;44154;45.506;-122.806;2023-04-07T12:48:37;10.07;;;9.07;;
50853;SDS011;44154;45.506;-122.806;2023-04-07T12:51:03;9.85;;;8.95;;
50853;SDS011;44154;45.506;-122.806;2023-04-07T12:53:30;10.27;;;9.38;;
50853;SDS011;44154;45.506;-122.806;2023-04-07T12:55:56;10.48;;;9.50;;
50853;SDS011;44154;45.506;-122.806;2023-04-07T12:58:23;10.13;;;9.20;;
50853;SDS011;44154;45.506;-122.806;2023-04-07T13:00:51;10.00;;;9.05;;
50853;SDS011;44154;45.506;-122.806;2023-04-07T13:03:17;9.75;;;8.85;;
50853;SDS011;44154;45.506;-122.806;2023-04-07T13:05:44;10.23;;;9.23;;
50853;SDS011;44154;45.506;-122.806;2023-04-07T13:08:10;10.43;;;9.50;;
50853;SDS011;44154;45.506;-122.806;2023-04-07T13:10:36;15.05;;;13.68;;
50853;SDS011;44154;45.506;-122.806;2023-04-07T13:13:02;11.13;;;10.13;;
50853;SDS011;44154;45.506;-122.806;2023-04-07T13:15:28;9.07;;;8.25;;
50853;SDS011;44154;45.506;-122.806;2023-04-07T13:17:55;8.95;;;8.15;;
50853;SDS011;44154;45.506;-122.806;2023-04-07T13:20:21;9.95;;;8.95;;
50853;SDS011;44154;45.506;-122.806;2023-04-07T13:22:47;8.95;;;8.10;;
50853;SDS011;44154;45.506;-122.806;2023-04-07T13:25:13;9.48;;;8.57;;
50853;SDS011;44154;45.506;-122.806;2023-04-07T13:27:39;8.75;;;7.95;;
50853;SDS011;44154;45.506;-122.806;2023-04-07T13:30:06;8.70;;;7.90;;
50853;SDS011;44154;45.506;-122.806;2023-04-07T13:32:32;8.77;;;7.97;;
50853;SDS011;44154;45.506;-122.806;2023-04-07T13:34:58;9.07;;;8.18;;
50853;SDS011;44154;45.506;-122.806;2023-04-07T13:37:25;8.40;;;7.63;;
50853;SDS011;44154;45.506;-122.806;2023-04-07T13:39:51;9.32;;;8.43;;
50853;SDS011;44154;45.506;-122.806;2023-04-07T13:42:17;13.65;;;12.45;;
50853;SDS011;44154;45.506;-122.806;2023-04-07T13:44:45;10.68;;;9.68;;
50853;SDS011;44154;45.506;-122.806;2023-04-07T13:47:12;7.90;;;7.10;;
50853;SDS011;44154;45.506;-122.806;2023-04-07T13:49:47;7.95;;;7.15;;
50853;SDS011;44154;45.506;-122.806;2023-04-07T13:52:14;8.07;;;7.28;;
50853;SDS011;44154;45.506;-122.806;2023-04-07T13:54:40;7.32;;;6.63;;
50853;SDS011;44154;45.506;-122.806;2023-04-07T13:57:07;7.88;;;7.07;;
50853;SDS011;44154;45.506;-122.806;2023-04-07T13:59:33;8.85;;;8.02;;
50853;SDS011;44154;45.506;-122.806;2023-04-07T14:01:59;9.75;;;8.00;;
50853;SDS011;44154;45.506;-122.806;2023-04-07T14:04:26;9.13;;;8.32;;
50853;SDS011;44154;45.506;-122.806;2023-04-07T14:06:52;7.30;;;6.60;;
50853;SDS011;44154;45.506;-122.806;2023-04-07T14:09:19;8.38;;;7.57;;
50853;SDS011;44154;45.506;-122.806;2023-04-07T14:11:45;7.93;;;7.00;;
50853;SDS011;44154;45.506;-122.806;2023-04-07T14:14:11;10.95;;;10.00;;
50853;SDS011;44154;45.506;-122.806;2023-04-07T14:16:37;11.52;;;10.48;;
50853;SDS011;44154;45.506;-122.806;2023-04-07T14:19:03;11.20;;;10.10;;
50853;SDS011;44154;45.506;-122.806;2023-04-07T14:21:29;12.38;;;11.18;;
50853;SDS011;44154;45.506;-122.806;2023-04-07T14:23:56;10.10;;;7.72;;
50853;SDS011;44154;45.506;-122.806;2023-04-07T14:26:22;9.32;;;7.60;;
50853;SDS011;44154;45.506;-122.806;2023-04-07T14:28:48;9.52;;;8.63;;
50853;SDS011;44154;45.506;-122.806;2023-04-07T14:31:14;8.57;;;7.78;;
50853;SDS011;44154;45.506;-122.806;2023-04-07T14:33:41;8.43;;;7.63;;
50853;SDS011;44154;45.506;-122.806;2023-04-07T14:36:08;9.23;;;8.43;;
50853;SDS011;44154;45.506;-122.806;2023-04-07T14:38:35;6.82;;;6.10;;
50853;SDS011;44154;45.506;-122.806;2023-04-07T14:41:01;8.05;;;7.25;;
50853;SDS011;44154;45.506;-122.806;2023-04-07T14:43:28;10.23;;;8.25;;
50853;SDS011;44154;45.506;-122.806;2023-04-07T14:45:54;9.25;;;8.15;;